TZ-0089 weather

Malagarasi Airport
Malagarasi, Xigoma Region, Tanzania

Public forecast

Using degrees Celsius for public forecast. Weather courtesy of forecast.io.

Closest aviation weather report (METAR) to Malagarasi Airport

Closest report is Kigoma Airport, 62.6 nm (115.9 km) W. Retrieved 2020/05/26 06:00 UTC (10 minutes ago):

HTKA 260600Z 00000KT 9999 BKN018 FEW019CB 21/19 Q1017 NOSIG

Closest aviation forecast (TAF) to Malagarasi Airport

Forecast is more than 12 hours old.

Closest forecast is Kigoma Airport, 62.6 nm (115.9 km) W. Retrieved 2020/05/21 06:24 UTC (5 days ago):

TAF HTKA 210500Z 2106/2206 12005KT 9999 SCT020 FEW021CB SCT080 TEMPO 2106/2143 12010KT